Arab, Missouri
Current Conditions -  °F | °C
As of 2:53 AM on Monday 22 Dec 2014 (Local Time) from KPOF Reporting Station
Overcast Overcast  
Wind Chill:   Ceiling: 2200
Heat Index:   Visibility: 10mi
Dew Point:   Wind: 3mph
Humidity: 73%   Direction: 90°E
Pressure: 29.86"   Gusts: NA
Location:  37.1241°N, 90.0834°W
Report Text: KPOF 220853Z AUTO 09003KT 10SM BKN022 OVC028 07/02 A2986 RMK AO2 SLP114 T00670022 56019
Loading
Personal Weather Stations






























Interactive Weather Map New forecast layout! Learn more

10-Day Weather Forecast

Advertisements
Track Severe Weather on mobile